sensor_id;sensor_type;location;lat;lon;timestamp;P1;durP1;ratioP1;P2;durP2;ratioP2
35743;SDS011;21867;52.012;4.324;2024-02-16T00:08:32;7.00;;;3.40;;
35743;SDS011;21867;52.012;4.324;2024-02-16T00:10:59;5.87;;;4.00;;
35743;SDS011;21867;52.012;4.324;2024-02-16T00:13:29;4.27;;;3.53;;
35743;SDS011;21867;52.012;4.324;2024-02-16T00:15:56;3.63;;;3.33;;
35743;SDS011;21867;52.012;4.324;2024-02-16T00:18:23;5.33;;;4.83;;
35743;SDS011;21867;52.012;4.324;2024-02-16T00:23:33;3.67;;;3.10;;
35743;SDS011;21867;52.012;4.324;2024-02-16T00:26:01;3.87;;;3.50;;
35743;SDS011;21867;52.012;4.324;2024-02-16T00:28:30;4.13;;;3.73;;
35743;SDS011;21867;52.012;4.324;2024-02-16T00:30:57;4.37;;;3.63;;
35743;SDS011;21867;52.012;4.324;2024-02-16T00:36:29;5.03;;;3.03;;
35743;SDS011;21867;52.012;4.324;2024-02-16T00:38:57;4.03;;;3.63;;
35743;SDS011;21867;52.012;4.324;2024-02-16T00:41:25;5.23;;;3.40;;
35743;SDS011;21867;52.012;4.324;2024-02-16T00:43:54;5.30;;;3.53;;
35743;SDS011;21867;52.012;4.324;2024-02-16T00:46:21;4.53;;;3.70;;
35743;SDS011;21867;52.012;4.324;2024-02-16T00:48:49;5.50;;;4.03;;
35743;SDS011;21867;52.012;4.324;2024-02-16T00:51:33;9.03;;;4.27;;
35743;SDS011;21867;52.012;4.324;2024-02-16T00:54:00;3.97;;;3.53;;
35743;SDS011;21867;52.012;4.324;2024-02-16T00:56:28;3.77;;;3.37;;
35743;SDS011;21867;52.012;4.324;2024-02-16T00:58:57;4.83;;;4.00;;
35743;SDS011;21867;52.012;4.324;2024-02-16T01:05:06;4.63;;;4.20;;
35743;SDS011;21867;52.012;4.324;2024-02-16T01:07:33;6.23;;;3.50;;
35743;SDS011;21867;52.012;4.324;2024-02-16T01:10:01;3.57;;;3.20;;
35743;SDS011;21867;52.012;4.324;2024-02-16T01:12:28;3.70;;;3.40;;
35743;SDS011;21867;52.012;4.324;2024-02-16T01:14:57;4.43;;;3.93;;
35743;SDS011;21867;52.012;4.324;2024-02-16T01:17:24;5.63;;;4.63;;
35743;SDS011;21867;52.012;4.324;2024-02-16T01:19:52;4.97;;;3.93;;
35743;SDS011;21867;52.012;4.324;2024-02-16T01:22:19;6.77;;;4.13;;
35743;SDS011;21867;52.012;4.324;2024-02-16T01:24:47;5.10;;;3.97;;
35743;SDS011;21867;52.012;4.324;2024-02-16T01:27:15;5.93;;;3.77;;
35743;SDS011;21867;52.012;4.324;2024-02-16T01:29:43;4.73;;;4.10;;
35743;SDS011;21867;52.012;4.324;2024-02-16T01:32:16;8.23;;;4.97;;
35743;SDS011;21867;52.012;4.324;2024-02-16T01:34:49;4.57;;;3.87;;
35743;SDS011;21867;52.012;4.324;2024-02-16T01:37:16;6.43;;;4.47;;
35743;SDS011;21867;52.012;4.324;2024-02-16T01:39:44;5.27;;;4.27;;
35743;SDS011;21867;52.012;4.324;2024-02-16T01:42:11;7.03;;;4.63;;
35743;SDS011;21867;52.012;4.324;2024-02-16T01:44:38;4.03;;;3.30;;
35743;SDS011;21867;52.012;4.324;2024-02-16T01:47:06;7.03;;;4.27;;
35743;SDS011;21867;52.012;4.324;2024-02-16T01:52:32;4.57;;;3.97;;
35743;SDS011;21867;52.012;4.324;2024-02-16T01:55:00;6.53;;;3.60;;
35743;SDS011;21867;52.012;4.324;2024-02-16T01:57:27;7.73;;;4.07;;
35743;SDS011;21867;52.012;4.324;2024-02-16T01:59:59;8.73;;;4.13;;
35743;SDS011;21867;52.012;4.324;2024-02-16T02:02:27;4.13;;;3.67;;
35743;SDS011;21867;52.012;4.324;2024-02-16T02:05:22;5.33;;;3.70;;
35743;SDS011;21867;52.012;4.324;2024-02-16T02:07:51;5.97;;;4.33;;
35743;SDS011;21867;52.012;4.324;2024-02-16T02:10:18;4.90;;;4.20;;
35743;SDS011;21867;52.012;4.324;2024-02-16T02:12:45;3.70;;;3.40;;
35743;SDS011;21867;52.012;4.324;2024-02-16T02:15:13;3.90;;;3.50;;
35743;SDS011;21867;52.012;4.324;2024-02-16T02:17:40;5.10;;;3.93;;
35743;SDS011;21867;52.012;4.324;2024-02-16T02:22:59;5.50;;;4.23;;
35743;SDS011;21867;52.012;4.324;2024-02-16T02:25:26;5.03;;;4.47;;
35743;SDS011;21867;52.012;4.324;2024-02-16T02:27:53;4.80;;;4.10;;
35743;SDS011;21867;52.012;4.324;2024-02-16T02:30:21;5.10;;;3.77;;
35743;SDS011;21867;52.012;4.324;2024-02-16T02:32:49;6.53;;;3.73;;
35743;SDS011;21867;52.012;4.324;2024-02-16T02:35:35;6.23;;;4.50;;
35743;SDS011;21867;52.012;4.324;2024-02-16T02:41:17;4.97;;;3.87;;
35743;SDS011;21867;52.012;4.324;2024-02-16T02:43:44;7.03;;;3.50;;
35743;SDS011;21867;52.012;4.324;2024-02-16T02:46:14;6.10;;;4.20;;
35743;SDS011;21867;52.012;4.324;2024-02-16T02:48:42;5.47;;;4.17;;
35743;SDS011;21867;52.012;4.324;2024-02-16T02:51:11;4.67;;;4.27;;
35743;SDS011;21867;52.012;4.324;2024-02-16T02:53:38;5.03;;;4.00;;
35743;SDS011;21867;52.012;4.324;2024-02-16T02:56:12;10.97;;;4.83;;
35743;SDS011;21867;52.012;4.324;2024-02-16T02:58:41;5.73;;;4.53;;
35743;SDS011;21867;52.012;4.324;2024-02-16T03:01:09;5.87;;;3.90;;
35743;SDS011;21867;52.012;4.324;2024-02-16T03:03:36;4.23;;;3.83;;
35743;SDS011;21867;52.012;4.324;2024-02-16T03:06:10;5.17;;;4.23;;
35743;SDS011;21867;52.012;4.324;2024-02-16T03:08:53;4.37;;;3.60;;
35743;SDS011;21867;52.012;4.324;2024-02-16T03:11:20;5.00;;;4.50;;
35743;SDS011;21867;52.012;4.324;2024-02-16T03:13:50;4.47;;;4.07;;
35743;SDS011;21867;52.012;4.324;2024-02-16T03:16:17;5.67;;;4.43;;
35743;SDS011;21867;52.012;4.324;2024-02-16T03:18:44;6.40;;;4.20;;
35743;SDS011;21867;52.012;4.324;2024-02-16T03:21:12;5.03;;;4.40;;
35743;SDS011;21867;52.012;4.324;2024-02-16T03:23:40;4.57;;;4.13;;
35743;SDS011;21867;52.012;4.324;2024-02-16T03:26:13;4.67;;;4.10;;
35743;SDS011;21867;52.012;4.324;2024-02-16T03:28:40;4.90;;;3.83;;
35743;SDS011;21867;52.012;4.324;2024-02-16T03:31:15;6.23;;;4.70;;
35743;SDS011;21867;52.012;4.324;2024-02-16T03:33:42;7.37;;;4.23;;
35743;SDS011;21867;52.012;4.324;2024-02-16T03:36:10;4.80;;;3.83;;
35743;SDS011;21867;52.012;4.324;2024-02-16T03:38:37;7.47;;;4.87;;
35743;SDS011;21867;52.012;4.324;2024-02-16T03:44:10;4.80;;;4.40;;
35743;SDS011;21867;52.012;4.324;2024-02-16T03:46:39;6.20;;;4.97;;
35743;SDS011;21867;52.012;4.324;2024-02-16T03:49:06;7.20;;;4.27;;
35743;SDS011;21867;52.012;4.324;2024-02-16T03:51:34;7.10;;;4.70;;
35743;SDS011;21867;52.012;4.324;2024-02-16T03:54:01;6.17;;;4.30;;
35743;SDS011;21867;52.012;4.324;2024-02-16T03:56:28;5.77;;;4.20;;
35743;SDS011;21867;52.012;4.324;2024-02-16T04:01:47;7.33;;;4.17;;
35743;SDS011;21867;52.012;4.324;2024-02-16T04:04:14;5.93;;;4.80;;
35743;SDS011;21867;52.012;4.324;2024-02-16T04:06:42;7.13;;;4.23;;
35743;SDS011;21867;52.012;4.324;2024-02-16T04:09:18;10.67;;;4.30;;
35743;SDS011;21867;52.012;4.324;2024-02-16T04:11:49;5.87;;;4.43;;
35743;SDS011;21867;52.012;4.324;2024-02-16T04:14:17;4.47;;;3.93;;
35743;SDS011;21867;52.012;4.324;2024-02-16T04:16:44;9.63;;;5.40;;
35743;SDS011;21867;52.012;4.324;2024-02-16T04:19:13;5.67;;;4.97;;
35743;SDS011;21867;52.012;4.324;2024-02-16T04:21:41;8.13;;;5.37;;
35743;SDS011;21867;52.012;4.324;2024-02-16T04:24:08;6.33;;;4.67;;
35743;SDS011;21867;52.012;4.324;2024-02-16T04:26:36;6.83;;;4.77;;
35743;SDS011;21867;52.012;4.324;2024-02-16T04:29:04;7.17;;;5.47;;
35743;SDS011;21867;52.012;4.324;2024-02-16T04:31:32;9.37;;;4.97;;
35743;SDS011;21867;52.012;4.324;2024-02-16T04:33:59;7.03;;;4.57;;
35743;SDS011;21867;52.012;4.324;2024-02-16T04:36:28;7.20;;;5.20;;
35743;SDS011;21867;52.012;4.324;2024-02-16T04:38:57;7.27;;;5.00;;
35743;SDS011;21867;52.012;4.324;2024-02-16T04:41:42;11.73;;;6.57;;
35743;SDS011;21867;52.012;4.324;2024-02-16T04:44:15;5.37;;;4.87;;
35743;SDS011;21867;52.012;4.324;2024-02-16T04:46:42;7.77;;;5.60;;
35743;SDS011;21867;52.012;4.324;2024-02-16T04:49:10;8.70;;;5.00;;
35743;SDS011;21867;52.012;4.324;2024-02-16T04:51:39;9.13;;;5.57;;
35743;SDS011;21867;52.012;4.324;2024-02-16T04:54:06;6.40;;;4.90;;
35743;SDS011;21867;52.012;4.324;2024-02-16T04:56:33;8.83;;;5.73;;
35743;SDS011;21867;52.012;4.324;2024-02-16T04:59:01;8.77;;;4.87;;
35743;SDS011;21867;52.012;4.324;2024-02-16T05:01:28;7.90;;;5.53;;
35743;SDS011;21867;52.012;4.324;2024-02-16T05:03:56;8.57;;;6.17;;
35743;SDS011;21867;52.012;4.324;2024-02-16T05:06:24;6.90;;;5.43;;
35743;SDS011;21867;52.012;4.324;2024-02-16T05:08:53;8.93;;;5.30;;
35743;SDS011;21867;52.012;4.324;2024-02-16T05:11:20;7.93;;;5.73;;
35743;SDS011;21867;52.012;4.324;2024-02-16T05:13:48;7.17;;;5.57;;
35743;SDS011;21867;52.012;4.324;2024-02-16T05:20:09;9.10;;;5.70;;
35743;SDS011;21867;52.012;4.324;2024-02-16T05:22:36;7.90;;;6.13;;
35743;SDS011;21867;52.012;4.324;2024-02-16T05:25:05;7.37;;;5.40;;
35743;SDS011;21867;52.012;4.324;2024-02-16T05:27:33;7.10;;;4.80;;
35743;SDS011;21867;52.012;4.324;2024-02-16T05:30:09;7.97;;;5.30;;
35743;SDS011;21867;52.012;4.324;2024-02-16T05:32:37;8.07;;;5.50;;
35743;SDS011;21867;52.012;4.324;2024-02-16T05:35:04;6.63;;;5.33;;
35743;SDS011;21867;52.012;4.324;2024-02-16T05:37:32;7.77;;;6.43;;
35743;SDS011;21867;52.012;4.324;2024-02-16T05:39:59;8.07;;;5.57;;
35743;SDS011;21867;52.012;4.324;2024-02-16T05:42:28;7.37;;;5.37;;
35743;SDS011;21867;52.012;4.324;2024-02-16T05:44:56;5.97;;;5.33;;
35743;SDS011;21867;52.012;4.324;2024-02-16T05:47:23;11.17;;;6.70;;
35743;SDS011;21867;52.012;4.324;2024-02-16T05:49:51;8.00;;;5.47;;
35743;SDS011;21867;52.012;4.324;2024-02-16T05:52:18;7.87;;;5.13;;
35743;SDS011;21867;52.012;4.324;2024-02-16T05:54:46;6.17;;;5.57;;
35743;SDS011;21867;52.012;4.324;2024-02-16T05:57:14;7.40;;;5.90;;
35743;SDS011;21867;52.012;4.324;2024-02-16T05:59:52;6.03;;;5.43;;
35743;SDS011;21867;52.012;4.324;2024-02-16T06:02:23;7.93;;;5.33;;
35743;SDS011;21867;52.012;4.324;2024-02-16T06:04:50;8.53;;;6.20;;
35743;SDS011;21867;52.012;4.324;2024-02-16T06:07:18;9.03;;;5.47;;
35743;SDS011;21867;52.012;4.324;2024-02-16T06:09:45;7.50;;;6.03;;
35743;SDS011;21867;52.012;4.324;2024-02-16T06:12:13;7.63;;;5.93;;
35743;SDS011;21867;52.012;4.324;2024-02-16T06:14:45;5.80;;;5.20;;
35743;SDS011;21867;52.012;4.324;2024-02-16T06:17:14;10.17;;;5.30;;
35743;SDS011;21867;52.012;4.324;2024-02-16T06:19:41;7.33;;;5.43;;
35743;SDS011;21867;52.012;4.324;2024-02-16T06:22:09;5.87;;;4.73;;
35743;SDS011;21867;52.012;4.324;2024-02-16T06:24:37;6.80;;;5.07;;
35743;SDS011;21867;52.012;4.324;2024-02-16T06:27:04;5.83;;;5.27;;
35743;SDS011;21867;52.012;4.324;2024-02-16T06:29:31;8.80;;;5.67;;
35743;SDS011;21867;52.012;4.324;2024-02-16T06:31:59;7.00;;;5.20;;
35743;SDS011;21867;52.012;4.324;2024-02-16T06:34:27;8.57;;;5.43;;
35743;SDS011;21867;52.012;4.324;2024-02-16T06:36:55;5.77;;;5.23;;
35743;SDS011;21867;52.012;4.324;2024-02-16T06:39:22;7.33;;;5.53;;
35743;SDS011;21867;52.012;4.324;2024-02-16T06:41:50;5.47;;;4.97;;
35743;SDS011;21867;52.012;4.324;2024-02-16T06:44:17;5.50;;;5.00;;
35743;SDS011;21867;52.012;4.324;2024-02-16T06:46:48;7.60;;;5.53;;
35743;SDS011;21867;52.012;4.324;2024-02-16T06:49:16;5.40;;;4.63;;
35743;SDS011;21867;52.012;4.324;2024-02-16T06:51:44;5.73;;;5.23;;
35743;SDS011;21867;52.012;4.324;2024-02-16T06:54:12;10.57;;;6.43;;
35743;SDS011;21867;52.012;4.324;2024-02-16T06:56:39;6.43;;;5.73;;
35743;SDS011;21867;52.012;4.324;2024-02-16T06:59:07;5.50;;;4.87;;
35743;SDS011;21867;52.012;4.324;2024-02-16T07:01:34;7.33;;;5.80;;
35743;SDS011;21867;52.012;4.324;2024-02-16T07:04:01;7.20;;;6.07;;
35743;SDS011;21867;52.012;4.324;2024-02-16T07:06:29;7.73;;;5.90;;
35743;SDS011;21867;52.012;4.324;2024-02-16T07:08:58;7.40;;;5.07;;
35743;SDS011;21867;52.012;4.324;2024-02-16T07:11:25;5.70;;;5.17;;
35743;SDS011;21867;52.012;4.324;2024-02-16T07:13:53;5.10;;;4.63;;
35743;SDS011;21867;52.012;4.324;2024-02-16T07:16:20;6.10;;;5.23;;
35743;SDS011;21867;52.012;4.324;2024-02-16T07:18:48;7.27;;;5.50;;
35743;SDS011;21867;52.012;4.324;2024-02-16T07:21:15;6.97;;;6.27;;
35743;SDS011;21867;52.012;4.324;2024-02-16T07:23:43;5.57;;;5.07;;
35743;SDS011;21867;52.012;4.324;2024-02-16T07:26:11;6.80;;;6.10;;
35743;SDS011;21867;52.012;4.324;2024-02-16T07:28:39;8.23;;;5.43;;
35743;SDS011;21867;52.012;4.324;2024-02-16T07:31:06;6.07;;;4.80;;
35743;SDS011;21867;52.012;4.324;2024-02-16T07:33:33;7.47;;;5.80;;
35743;SDS011;21867;52.012;4.324;2024-02-16T07:36:01;7.23;;;5.60;;
35743;SDS011;21867;52.012;4.324;2024-02-16T07:38:28;7.10;;;5.37;;
35743;SDS011;21867;52.012;4.324;2024-02-16T07:40:56;8.10;;;5.30;;
35743;SDS011;21867;52.012;4.324;2024-02-16T07:43:24;5.97;;;5.37;;
35743;SDS011;21867;52.012;4.324;2024-02-16T07:45:52;6.70;;;5.07;;
35743;SDS011;21867;52.012;4.324;2024-02-16T07:48:19;7.73;;;6.87;;
35743;SDS011;21867;52.012;4.324;2024-02-16T07:50:47;7.47;;;6.60;;
35743;SDS011;21867;52.012;4.324;2024-02-16T07:53:14;10.37;;;5.33;;
35743;SDS011;21867;52.012;4.324;2024-02-16T07:55:41;10.27;;;5.33;;
35743;SDS011;21867;52.012;4.324;2024-02-16T07:58:09;7.70;;;5.70;;
35743;SDS011;21867;52.012;4.324;2024-02-16T08:00:37;9.63;;;5.97;;
35743;SDS011;21867;52.012;4.324;2024-02-16T08:03:05;7.33;;;6.17;;
35743;SDS011;21867;52.012;4.324;2024-02-16T08:05:32;10.93;;;5.70;;
35743;SDS011;21867;52.012;4.324;2024-02-16T08:08:00;8.90;;;6.00;;
35743;SDS011;21867;52.012;4.324;2024-02-16T08:10:27;7.13;;;5.77;;
35743;SDS011;21867;52.012;4.324;2024-02-16T08:12:55;7.70;;;6.47;;
35743;SDS011;21867;52.012;4.324;2024-02-16T08:15:22;7.67;;;5.10;;
35743;SDS011;21867;52.012;4.324;2024-02-16T08:17:52;8.70;;;6.50;;
35743;SDS011;21867;52.012;4.324;2024-02-16T08:20:21;7.03;;;5.63;;
35743;SDS011;21867;52.012;4.324;2024-02-16T08:22:48;6.13;;;5.53;;
35743;SDS011;21867;52.012;4.324;2024-02-16T08:25:15;8.00;;;6.67;;
35743;SDS011;21867;52.012;4.324;2024-02-16T08:27:43;7.17;;;6.47;;
35743;SDS011;21867;52.012;4.324;2024-02-16T08:30:11;11.37;;;6.30;;
35743;SDS011;21867;52.012;4.324;2024-02-16T08:32:39;6.20;;;5.53;;
35743;SDS011;21867;52.012;4.324;2024-02-16T08:35:08;7.60;;;6.80;;
35743;SDS011;21867;52.012;4.324;2024-02-16T08:37:35;7.50;;;6.40;;
35743;SDS011;21867;52.012;4.324;2024-02-16T08:40:03;6.70;;;5.87;;
35743;SDS011;21867;52.012;4.324;2024-02-16T08:42:30;9.40;;;6.07;;
35743;SDS011;21867;52.012;4.324;2024-02-16T08:44:58;13.13;;;6.87;;
35743;SDS011;21867;52.012;4.324;2024-02-16T08:47:25;12.27;;;6.43;;
35743;SDS011;21867;52.012;4.324;2024-02-16T08:49:53;8.73;;;6.73;;
35743;SDS011;21867;52.012;4.324;2024-02-16T08:52:22;10.13;;;6.50;;
35743;SDS011;21867;52.012;4.324;2024-02-16T08:54:49;8.73;;;6.90;;
35743;SDS011;21867;52.012;4.324;2024-02-16T08:57:17;10.07;;;7.33;;
35743;SDS011;21867;52.012;4.324;2024-02-16T08:59:45;9.30;;;7.43;;
35743;SDS011;21867;52.012;4.324;2024-02-16T09:02:13;9.43;;;5.80;;
35743;SDS011;21867;52.012;4.324;2024-02-16T09:04:40;12.50;;;6.30;;
35743;SDS011;21867;52.012;4.324;2024-02-16T09:07:07;9.97;;;6.57;;
35743;SDS011;21867;52.012;4.324;2024-02-16T09:09:36;10.77;;;7.37;;
35743;SDS011;21867;52.012;4.324;2024-02-16T09:12:04;14.87;;;7.80;;
35743;SDS011;21867;52.012;4.324;2024-02-16T09:14:31;12.67;;;7.03;;
35743;SDS011;21867;52.012;4.324;2024-02-16T09:16:59;11.87;;;8.67;;
35743;SDS011;21867;52.012;4.324;2024-02-16T09:19:26;13.07;;;8.33;;
35743;SDS011;21867;52.012;4.324;2024-02-16T09:21:54;17.23;;;7.07;;
35743;SDS011;21867;52.012;4.324;2024-02-16T09:24:24;12.33;;;8.33;;
35743;SDS011;21867;52.012;4.324;2024-02-16T09:26:53;15.93;;;9.33;;
35743;SDS011;21867;52.012;4.324;2024-02-16T09:29:20;15.90;;;9.70;;
35743;SDS011;21867;52.012;4.324;2024-02-16T09:31:48;22.03;;;11.23;;
35743;SDS011;21867;52.012;4.324;2024-02-16T09:34:16;24.33;;;11.63;;
35743;SDS011;21867;52.012;4.324;2024-02-16T09:36:43;24.70;;;13.37;;
35743;SDS011;21867;52.012;4.324;2024-02-16T09:39:11;26.90;;;12.00;;
35743;SDS011;21867;52.012;4.324;2024-02-16T09:41:41;21.03;;;12.50;;
35743;SDS011;21867;52.012;4.324;2024-02-16T09:44:10;21.27;;;11.83;;
35743;SDS011;21867;52.012;4.324;2024-02-16T09:46:37;21.47;;;11.80;;
35743;SDS011;21867;52.012;4.324;2024-02-16T09:49:04;26.13;;;14.47;;
35743;SDS011;21867;52.012;4.324;2024-02-16T09:51:35;22.27;;;12.20;;
35743;SDS011;21867;52.012;4.324;2024-02-16T09:54:03;23.60;;;14.17;;
35743;SDS011;21867;52.012;4.324;2024-02-16T09:56:30;22.07;;;14.83;;
35743;SDS011;21867;52.012;4.324;2024-02-16T09:58:58;20.20;;;13.77;;
35743;SDS011;21867;52.012;4.324;2024-02-16T10:01:27;12.00;;;10.77;;
35743;SDS011;21867;52.012;4.324;2024-02-16T10:03:54;20.80;;;10.90;;
35743;SDS011;21867;52.012;4.324;2024-02-16T10:06:21;16.03;;;10.53;;
35743;SDS011;21867;52.012;4.324;2024-02-16T10:08:50;14.40;;;12.27;;
35743;SDS011;21867;52.012;4.324;2024-02-16T10:11:18;15.20;;;12.57;;
35743;SDS011;21867;52.012;4.324;2024-02-16T10:13:55;22.17;;;14.13;;
35743;SDS011;21867;52.012;4.324;2024-02-16T10:16:23;16.83;;;12.70;;
35743;SDS011;21867;52.012;4.324;2024-02-16T10:18:52;15.57;;;13.03;;
35743;SDS011;21867;52.012;4.324;2024-02-16T10:21:25;16.80;;;13.03;;
35743;SDS011;21867;52.012;4.324;2024-02-16T10:23:59;15.73;;;12.57;;
35743;SDS011;21867;52.012;4.324;2024-02-16T10:26:27;15.70;;;12.83;;
35743;SDS011;21867;52.012;4.324;2024-02-16T10:28:54;12.63;;;11.40;;
35743;SDS011;21867;52.012;4.324;2024-02-16T10:31:22;10.13;;;8.87;;
35743;SDS011;21867;52.012;4.324;2024-02-16T10:33:51;14.73;;;11.13;;
35743;SDS011;21867;52.012;4.324;2024-02-16T10:36:19;12.83;;;10.20;;
35743;SDS011;21867;52.012;4.324;2024-02-16T10:38:47;14.77;;;11.33;;
35743;SDS011;21867;52.012;4.324;2024-02-16T10:41:16;13.30;;;10.83;;
35743;SDS011;21867;52.012;4.324;2024-02-16T10:43:43;14.37;;;12.63;;
35743;SDS011;21867;52.012;4.324;2024-02-16T10:46:14;13.43;;;10.63;;
35743;SDS011;21867;52.012;4.324;2024-02-16T10:48:42;16.83;;;12.43;;
35743;SDS011;21867;52.012;4.324;2024-02-16T10:51:11;16.90;;;10.93;;
35743;SDS011;21867;52.012;4.324;2024-02-16T10:53:40;14.83;;;11.30;;
35743;SDS011;21867;52.012;4.324;2024-02-16T10:56:09;11.47;;;10.23;;
35743;SDS011;21867;52.012;4.324;2024-02-16T10:58:37;13.90;;;10.87;;
35743;SDS011;21867;52.012;4.324;2024-02-16T11:01:08;11.83;;;9.47;;
35743;SDS011;21867;52.012;4.324;2024-02-16T11:03:37;11.20;;;8.93;;
35743;SDS011;21867;52.012;4.324;2024-02-16T11:06:14;10.30;;;7.90;;
35743;SDS011;21867;52.012;4.324;2024-02-16T11:08:42;11.30;;;10.17;;
35743;SDS011;21867;52.012;4.324;2024-02-16T11:11:09;14.30;;;9.83;;
35743;SDS011;21867;52.012;4.324;2024-02-16T11:13:37;10.33;;;8.90;;
35743;SDS011;21867;52.012;4.324;2024-02-16T11:16:06;14.10;;;9.47;;
35743;SDS011;21867;52.012;4.324;2024-02-16T11:18:36;11.83;;;9.23;;
35743;SDS011;21867;52.012;4.324;2024-02-16T11:21:04;12.33;;;9.20;;
35743;SDS011;21867;52.012;4.324;2024-02-16T11:23:34;9.50;;;8.70;;
35743;SDS011;21867;52.012;4.324;2024-02-16T11:26:01;9.37;;;8.20;;
35743;SDS011;21867;52.012;4.324;2024-02-16T11:28:30;9.33;;;8.33;;
35743;SDS011;21867;52.012;4.324;2024-02-16T11:30:58;11.23;;;7.80;;
35743;SDS011;21867;52.012;4.324;2024-02-16T11:33:28;11.80;;;8.50;;
35743;SDS011;21867;52.012;4.324;2024-02-16T11:35:56;14.63;;;8.40;;
35743;SDS011;21867;52.012;4.324;2024-02-16T11:38:24;10.33;;;8.37;;
35743;SDS011;21867;52.012;4.324;2024-02-16T11:40:57;9.47;;;7.93;;
35743;SDS011;21867;52.012;4.324;2024-02-16T11:43:25;8.57;;;7.30;;
35743;SDS011;21867;52.012;4.324;2024-02-16T11:45:53;8.27;;;7.40;;
35743;SDS011;21867;52.012;4.324;2024-02-16T11:48:20;12.70;;;9.17;;
35743;SDS011;21867;52.012;4.324;2024-02-16T11:50:48;12.23;;;9.00;;
35743;SDS011;21867;52.012;4.324;2024-02-16T11:53:16;9.63;;;8.83;;
35743;SDS011;21867;52.012;4.324;2024-02-16T11:55:46;11.40;;;9.50;;
35743;SDS011;21867;52.012;4.324;2024-02-16T11:58:14;10.47;;;9.57;;
35743;SDS011;21867;52.012;4.324;2024-02-16T12:00:42;12.07;;;10.60;;
35743;SDS011;21867;52.012;4.324;2024-02-16T12:03:10;12.40;;;11.07;;
35743;SDS011;21867;52.012;4.324;2024-02-16T12:05:37;12.30;;;11.23;;
35743;SDS011;21867;52.012;4.324;2024-02-16T12:08:05;18.73;;;11.33;;
35743;SDS011;21867;52.012;4.324;2024-02-16T12:10:33;14.50;;;10.77;;
35743;SDS011;21867;52.012;4.324;2024-02-16T12:13:00;12.97;;;11.73;;
35743;SDS011;21867;52.012;4.324;2024-02-16T12:15:33;10.97;;;9.93;;
35743;SDS011;21867;52.012;4.324;2024-02-16T12:18:01;16.73;;;11.77;;
35743;SDS011;21867;52.012;4.324;2024-02-16T12:20:29;12.53;;;11.37;;
35743;SDS011;21867;52.012;4.324;2024-02-16T12:22:57;12.17;;;10.90;;
35743;SDS011;21867;52.012;4.324;2024-02-16T12:25:24;12.40;;;11.03;;
35743;SDS011;21867;52.012;4.324;2024-02-16T12:27:52;17.00;;;12.23;;
35743;SDS011;21867;52.012;4.324;2024-02-16T12:30:19;13.63;;;9.83;;
35743;SDS011;21867;52.012;4.324;2024-02-16T12:32:48;11.57;;;10.37;;
35743;SDS011;21867;52.012;4.324;2024-02-16T12:35:15;14.20;;;12.87;;
35743;SDS011;21867;52.012;4.324;2024-02-16T12:37:45;12.50;;;11.50;;
35743;SDS011;21867;52.012;4.324;2024-02-16T12:40:12;13.37;;;11.27;;
35743;SDS011;21867;52.012;4.324;2024-02-16T12:42:40;14.47;;;13.07;;
35743;SDS011;21867;52.012;4.324;2024-02-16T12:45:09;14.07;;;12.77;;
35743;SDS011;21867;52.012;4.324;2024-02-16T12:47:37;16.03;;;12.40;;
35743;SDS011;21867;52.012;4.324;2024-02-16T12:50:06;12.67;;;11.47;;
35743;SDS011;21867;52.012;4.324;2024-02-16T12:52:34;12.07;;;11.23;;
35743;SDS011;21867;52.012;4.324;2024-02-16T12:55:16;16.23;;;14.73;;
35743;SDS011;21867;52.012;4.324;2024-02-16T12:57:43;16.97;;;15.23;;
35743;SDS011;21867;52.012;4.324;2024-02-16T13:00:11;14.20;;;13.20;;
35743;SDS011;21867;52.012;4.324;2024-02-16T13:02:39;12.83;;;11.73;;
35743;SDS011;21867;52.012;4.324;2024-02-16T13:05:08;15.90;;;14.23;;
35743;SDS011;21867;52.012;4.324;2024-02-16T13:07:36;16.13;;;14.60;;
35743;SDS011;21867;52.012;4.324;2024-02-16T13:10:03;10.80;;;9.67;;
35743;SDS011;21867;52.012;4.324;2024-02-16T13:12:31;12.60;;;11.50;;
35743;SDS011;21867;52.012;4.324;2024-02-16T13:14:58;12.10;;;9.97;;
35743;SDS011;21867;52.012;4.324;2024-02-16T13:17:39;13.40;;;9.90;;
35743;SDS011;21867;52.012;4.324;2024-02-16T13:20:07;8.53;;;7.73;;
35743;SDS011;21867;52.012;4.324;2024-02-16T13:22:35;9.03;;;8.23;;
35743;SDS011;21867;52.012;4.324;2024-02-16T13:25:03;8.83;;;7.07;;
35743;SDS011;21867;52.012;4.324;2024-02-16T13:27:31;10.00;;;7.97;;
35743;SDS011;21867;52.012;4.324;2024-02-16T13:29:59;10.20;;;7.27;;
35743;SDS011;21867;52.012;4.324;2024-02-16T13:32:26;8.60;;;7.50;;
35743;SDS011;21867;52.012;4.324;2024-02-16T13:34:54;9.57;;;7.50;;
35743;SDS011;21867;52.012;4.324;2024-02-16T13:37:21;15.23;;;8.87;;
35743;SDS011;21867;52.012;4.324;2024-02-16T13:39:50;11.67;;;9.37;;
35743;SDS011;21867;52.012;4.324;2024-02-16T13:42:17;14.00;;;9.17;;
35743;SDS011;21867;52.012;4.324;2024-02-16T13:44:45;9.03;;;8.13;;
35743;SDS011;21867;52.012;4.324;2024-02-16T13:47:12;10.87;;;7.67;;
35743;SDS011;21867;52.012;4.324;2024-02-16T13:49:44;8.90;;;8.10;;
35743;SDS011;21867;52.012;4.324;2024-02-16T13:52:11;8.17;;;6.70;;
35743;SDS011;21867;52.012;4.324;2024-02-16T13:54:39;9.33;;;7.30;;
35743;SDS011;21867;52.012;4.324;2024-02-16T13:57:08;11.20;;;6.37;;
35743;SDS011;21867;52.012;4.324;2024-02-16T13:59:35;9.73;;;5.73;;
35743;SDS011;21867;52.012;4.324;2024-02-16T14:02:03;7.63;;;5.80;;
35743;SDS011;21867;52.012;4.324;2024-02-16T14:04:30;6.37;;;4.77;;
35743;SDS011;21867;52.012;4.324;2024-02-16T14:06:58;5.83;;;4.77;;
35743;SDS011;21867;52.012;4.324;2024-02-16T14:09:25;6.37;;;5.03;;
35743;SDS011;21867;52.012;4.324;2024-02-16T14:11:59;8.80;;;5.37;;
35743;SDS011;21867;52.012;4.324;2024-02-16T14:14:28;5.23;;;4.37;;
35743;SDS011;21867;52.012;4.324;2024-02-16T14:17:04;8.37;;;5.03;;
35743;SDS011;21867;52.012;4.324;2024-02-16T14:19:31;5.80;;;5.23;;
35743;SDS011;21867;52.012;4.324;2024-02-16T14:21:59;8.07;;;4.67;;
35743;SDS011;21867;52.012;4.324;2024-02-16T14:24:26;5.40;;;4.90;;
35743;SDS011;21867;52.012;4.324;2024-02-16T14:26:54;10.40;;;5.70;;
35743;SDS011;21867;52.012;4.324;2024-02-16T14:29:21;5.33;;;4.30;;
35743;SDS011;21867;52.012;4.324;2024-02-16T14:31:50;5.27;;;4.50;;
35743;SDS011;21867;52.012;4.324;2024-02-16T14:34:17;7.83;;;3.97;;
35743;SDS011;21867;52.012;4.324;2024-02-16T14:36:45;6.87;;;4.90;;
35743;SDS011;21867;52.012;4.324;2024-02-16T14:39:12;5.73;;;4.53;;
35743;SDS011;21867;52.012;4.324;2024-02-16T14:41:40;6.17;;;4.23;;
35743;SDS011;21867;52.012;4.324;2024-02-16T14:44:07;4.87;;;3.77;;
35743;SDS011;21867;52.012;4.324;2024-02-16T14:46:35;6.00;;;3.90;;
35743;SDS011;21867;52.012;4.324;2024-02-16T14:49:03;7.60;;;3.77;;
35743;SDS011;21867;52.012;4.324;2024-02-16T14:51:31;7.93;;;3.70;;
35743;SDS011;21867;52.012;4.324;2024-02-16T14:53:58;7.67;;;4.00;;
35743;SDS011;21867;52.012;4.324;2024-02-16T14:56:26;9.27;;;3.53;;
35743;SDS011;21867;52.012;4.324;2024-02-16T14:58:53;4.73;;;4.00;;
35743;SDS011;21867;52.012;4.324;2024-02-16T15:01:21;5.10;;;4.00;;
35743;SDS011;21867;52.012;4.324;2024-02-16T15:03:48;4.40;;;3.77;;
35743;SDS011;21867;52.012;4.324;2024-02-16T15:06:17;3.67;;;3.33;;
35743;SDS011;21867;52.012;4.324;2024-02-16T15:08:45;5.37;;;3.67;;
35743;SDS011;21867;52.012;4.324;2024-02-16T15:11:12;6.33;;;3.63;;
35743;SDS011;21867;52.012;4.324;2024-02-16T15:13:40;3.70;;;3.37;;
35743;SDS011;21867;52.012;4.324;2024-02-16T15:16:08;6.83;;;3.50;;
35743;SDS011;21867;52.012;4.324;2024-02-16T15:18:35;8.50;;;4.50;;
35743;SDS011;21867;52.012;4.324;2024-02-16T15:21:03;4.37;;;3.37;;
35743;SDS011;21867;52.012;4.324;2024-02-16T15:23:32;4.67;;;4.20;;